Time;durP1;ratioP1;P1;durP2;ratioP2;P2;SDS_P1;SDS_P2;PMS_P1;PMS_P2;Temp;Humidity;BMP_temperature;BMP_pressure;BME280_temperature;BME280_humidity;BME280_pressure;Samples;Min_cycle;Max_cycle;Signal;HPM_P1;HPM_P2
2022/05/29 00:01:35;;;;;;;13.40;11.77;;;;;;;15.81;100.00;92512.25;5068594;28;20217;-84
2022/05/29 00:04:00;;;;;;;10.90;10.13;;;;;;;16.01;100.00;92506.34;5069819;28;20249;-85
2022/05/29 00:06:26;;;;;;;12.93;11.30;;;;;;;16.10;100.00;92499.19;5069570;28;20221;-84
2022/05/29 00:08:51;;;;;;;14.77;13.23;;;;;;;16.17;100.00;92488.94;5069389;28;20271;-83
2022/05/29 00:11:17;;;;;;;12.37;11.17;;;;;;;16.07;100.00;92502.44;5070661;28;20283;-84
2022/05/29 00:13:46;;;;;;;12.60;11.33;;;;;;;16.17;100.00;92519.78;5070327;28;20201;-84
2022/05/29 00:16:12;;;;;;;11.60;10.70;;;;;;;16.32;100.00;92527.16;5067114;28;20964;-84
2022/05/29 00:18:38;;;;;;;13.10;11.73;;;;;;;15.97;100.00;92515.94;5070173;28;20173;-84
2022/05/29 00:21:05;;;;;;;13.03;11.93;;;;;;;16.15;100.00;92487.69;5070077;28;20237;-84
2022/05/29 00:23:35;;;;;;;13.73;12.40;;;;;;;16.21;100.00;92497.75;5070273;28;20193;-83
2022/05/29 00:26:00;;;;;;;13.10;11.97;;;;;;;15.93;100.00;92442.09;5070064;28;20209;-83
2022/05/29 00:28:26;;;;;;;12.77;11.37;;;;;;;15.75;100.00;92395.81;5068573;28;20217;-84
2022/05/29 00:30:51;;;;;;;13.80;12.67;;;;;;;16.02;100.00;92439.41;5069849;28;20233;-85
2022/05/29 00:33:17;;;;;;;13.33;12.23;;;;;;;16.29;100.00;92438.22;5069137;28;20181;-84
2022/05/29 00:35:43;;;;;;;13.13;11.90;;;;;;;16.23;100.00;92419.19;5068695;28;20217;-84
2022/05/29 00:38:11;;;;;;;14.40;13.07;;;;;;;16.10;100.00;92417.53;5070351;28;20197;-84
2022/05/29 00:40:43;;;;;;;13.73;12.50;;;;;;;16.03;100.00;92419.91;5069495;28;20245;-84
2022/05/29 00:43:09;;;;;;;12.17;11.33;;;;;;;16.06;100.00;92414.75;5069098;28;20186;-85
2022/05/29 00:45:44;;;;;;;12.77;11.53;;;;;;;16.06;100.00;92408.75;5068777;28;20300;-85
2022/05/29 00:48:15;;;;;;;12.07;11.17;;;;;;;15.95;100.00;92407.53;5070016;28;20209;-84
2022/05/29 00:50:40;;;;;;;13.57;12.27;;;;;;;16.02;100.00;92426.25;5068096;28;20281;-85
2022/05/29 00:53:06;;;;;;;11.17;10.07;;;;;;;15.63;100.00;92458.88;5069969;28;20182;-85
2022/05/29 00:55:32;;;;;;;10.83;10.03;;;;;;;15.88;100.00;92436.97;5069018;28;20225;-84
2022/05/29 00:58:04;;;;;;;12.47;10.47;;;;;;;15.90;100.00;92381.38;5069133;28;20201;-84
2022/05/29 01:00:31;;;;;;;11.23;10.43;;;;;;;15.66;100.00;92375.88;5068237;28;20243;-83
2022/05/29 01:02:59;;;;;;;11.07;9.60;;;;;;;15.69;100.00;92389.19;5068842;28;20189;-83
2022/05/29 01:05:27;;;;;;;11.57;10.43;;;;;;;15.63;100.00;92374.66;5068878;28;20225;-83
2022/05/29 01:08:00;;;;;;;10.53;9.83;;;;;;;15.61;100.00;92357.66;5068979;28;20243;-84
2022/05/29 01:11:11;;;;;;;10.47;9.60;;;;;;;15.53;100.00;92358.44;5068837;28;20229;-84
2022/05/29 01:13:52;;;;;;;12.03;10.20;;;;;;;15.21;100.00;92372.06;5051466;28;20201;-84
2022/05/29 01:16:35;;;;;;;11.00;9.57;;;;;;;14.99;100.00;92385.44;5067244;28;20244;-85
2022/05/29 01:19:21;;;;;;;11.17;9.83;;;;;;;15.26;100.00;92392.97;5069501;28;20194;-84
2022/05/29 01:22:06;;;;;;;10.07;9.33;;;;;;;14.91;100.00;92407.22;5067861;28;20222;-85
2022/05/29 01:25:02;;;;;;;9.70;8.90;;;;;;;15.18;100.00;92393.75;5068364;28;20249;-85
2022/05/29 01:28:00;;;;;;;11.77;9.27;;;;;;;15.26;100.00;92332.47;5069056;28;20209;-86
2022/05/29 01:30:31;;;;;;;10.20;9.17;;;;;;;14.80;100.00;92345.53;5068430;28;20225;-86
2022/05/29 01:33:18;;;;;;;9.97;8.97;;;;;;;14.70;100.00;92382.63;5067378;28;20185;-86
2022/05/29 01:35:50;;;;;;;10.37;9.37;;;;;;;14.86;100.00;92366.09;5067893;28;20228;-85
2022/05/29 01:38:30;;;;;;;10.10;9.30;;;;;;;14.81;100.00;92366.25;5068759;28;20208;-85
2022/05/29 01:41:03;;;;;;;8.50;8.10;;;;;;;14.65;100.00;92374.88;5067983;28;20315;-84
2022/05/29 01:44:03;;;;;;;9.77;8.97;;;;;;;14.68;100.00;92380.31;5068780;28;20181;-82
2022/05/29 01:46:34;;;;;;;9.50;9.00;;;;;;;14.64;100.00;92374.13;5068064;28;20859;-85
2022/05/29 01:49:24;;;;;;;9.47;8.87;;;;;;;14.58;100.00;92369.31;5068756;28;20204;-85
2022/05/29 01:52:00;;;;;;;10.20;9.53;;;;;;;14.44;100.00;92341.34;5068501;28;20233;-85
2022/05/29 01:54:34;;;;;;;10.03;9.43;;;;;;;14.63;100.00;92350.78;5068482;28;20195;-82
2022/05/29 01:57:23;;;;;;;10.30;9.70;;;;;;;14.62;100.00;92334.25;5068985;28;20212;-82
2022/05/29 02:00:06;;;;;;;10.47;9.40;;;;;;;14.69;100.00;92347.72;5072583;28;20928;-84
2022/05/29 02:02:40;;;;;;;9.20;8.60;;;;;;;14.69;100.00;92333.78;5072791;28;20260;-85
2022/05/29 02:05:17;;;;;;;9.57;8.90;;;;;;;14.73;100.00;92337.34;5071480;28;20253;-85
2022/05/29 02:07:48;;;;;;;8.97;8.37;;;;;;;14.86;100.00;92344.28;5072982;28;20187;-84
2022/05/29 02:10:30;;;;;;;9.13;8.43;;;;;;;14.84;100.00;92344.59;5072247;28;20197;-85
2022/05/29 02:13:03;;;;;;;9.20;8.70;;;;;;;14.88;100.00;92345.50;5071826;28;20193;-84
2022/05/29 02:15:55;;;;;;;9.50;8.93;;;;;;;14.95;100.00;92334.53;5071953;28;20229;-86
2022/05/29 02:18:28;;;;;;;9.57;8.40;;;;;;;14.93;100.00;92329.59;5062675;28;20201;-85
2022/05/29 02:20:58;;;;;;;9.60;8.80;;;;;;;14.74;100.00;92310.00;5072192;28;20225;-85
2022/05/29 02:23:31;;;;;;;10.27;9.37;;;;;;;15.14;100.00;92324.47;5071679;28;20182;-85
2022/05/29 02:25:58;;;;;;;10.33;9.57;;;;;;;15.18;100.00;92330.63;5071504;28;20249;-84
2022/05/29 02:28:46;;;;;;;10.20;9.30;;;;;;;14.95;99.65;92288.00;5054806;28;20212;-85
2022/05/29 02:31:41;;;;;;;9.17;8.37;;;;;;;15.07;99.41;92314.41;5072417;28;20229;-84
2022/05/29 02:34:23;;;;;;;9.80;9.17;;;;;;;15.07;100.00;92317.03;5071956;28;20204;-84
2022/05/29 02:36:54;;;;;;;8.97;8.27;;;;;;;14.94;99.44;92309.34;5072136;28;20217;-86
2022/05/29 02:39:45;;;;;;;9.27;8.67;;;;;;;14.94;98.04;92311.97;5073578;28;20197;-85
2022/05/29 02:42:32;;;;;;;9.03;8.63;;;;;;;14.95;98.49;92295.88;5071858;28;20217;-85
2022/05/29 02:45:22;;;;;;;8.50;8.10;;;;;;;14.88;99.13;92295.56;5069208;28;20193;-84
2022/05/29 02:48:06;;;;;;;8.93;8.40;;;;;;;14.97;97.80;92287.69;5067732;28;20248;-85
2022/05/29 02:50:49;;;;;;;10.00;9.10;;;;;;;14.87;96.34;92259.88;5071212;28;20232;-85
2022/05/29 02:53:15;;;;;;;9.00;8.40;;;;;;;14.95;95.80;92268.81;5072426;28;20188;-85
2022/05/29 02:55:44;;;;;;;8.80;8.40;;;;;;;14.90;95.50;92247.94;5072735;28;20284;-84
2022/05/29 02:58:24;;;;;;;8.37;7.97;;;;;;;14.90;95.71;92247.94;5072007;28;20264;-83
2022/05/29 03:01:08;;;;;;;8.40;7.60;;;;;;;15.06;95.33;92264.78;5071394;28;20224;-85
2022/05/29 03:03:47;;;;;;;9.53;8.70;;;;;;;15.06;95.03;92260.31;5071463;28;20178;-84
2022/05/29 03:06:34;;;;;;;8.93;8.43;;;;;;;15.28;94.30;92261.94;5070547;28;20229;-88
2022/05/29 03:09:06;;;;;;;8.47;8.03;;;;;;;15.27;93.07;92261.16;5071802;28;20205;-84
2022/05/29 03:11:39;;;;;;;8.63;8.17;;;;;;;15.29;93.52;92231.91;5071897;28;20226;-85
2022/05/29 03:14:35;;;;;;;8.60;8.10;;;;;;;15.38;91.23;92251.06;5071223;28;20190;-82
2022/05/29 03:17:41;;;;;;;9.00;8.20;;;;;;;15.52;89.34;92247.16;5070964;28;20225;-82
2022/05/29 03:20:34;;;;;;;9.63;8.90;;;;;;;15.65;90.04;92245.38;5071221;28;20197;-85
2022/05/29 03:23:09;;;;;;;9.00;8.37;;;;;;;15.91;88.65;92238.09;5071601;28;20186;-85
2022/05/29 03:25:42;;;;;;;9.77;9.07;;;;;;;15.88;89.24;92246.66;5070675;28;20238;-83
2022/05/29 03:28:13;;;;;;;9.00;8.40;;;;;;;16.04;90.79;92232.63;5071387;28;20193;-85
2022/05/29 03:30:41;;;;;;;8.53;7.80;;;;;;;16.44;89.84;92240.03;5069264;28;20229;-85
2022/05/29 03:33:09;;;;;;;8.97;8.13;;;;;;;16.49;88.21;92237.25;5071333;28;20192;-82
2022/05/29 03:35:53;;;;;;;9.77;9.20;;;;;;;16.52;86.75;92237.38;5070691;28;20213;-85
2022/05/29 03:38:19;;;;;;;8.43;7.83;;;;;;;16.47;86.56;92240.22;5070202;28;20194;-84
2022/05/29 03:40:46;;;;;;;9.47;8.90;;;;;;;16.47;84.12;92213.84;5071191;28;20222;-85
2022/05/29 03:43:12;;;;;;;8.63;8.00;;;;;;;16.43;83.95;92228.75;5068362;28;20185;-82
2022/05/29 03:45:38;;;;;;;9.50;8.70;;;;;;;16.65;84.99;92238.97;5070190;28;20229;-84
2022/05/29 03:48:05;;;;;;;8.43;7.87;;;;;;;16.69;83.27;92242.50;5071778;28;20256;-85
2022/05/29 03:50:33;;;;;;;8.90;8.33;;;;;;;16.66;82.00;92253.69;5070137;28;20233;-85
2022/05/29 03:53:00;;;;;;;8.67;8.10;;;;;;;16.56;84.36;92253.31;5072451;28;20177;-84
2022/05/29 03:55:26;;;;;;;10.93;9.90;;;;;;;16.54;86.80;92248.38;5069859;28;20252;-85
2022/05/29 03:57:52;;;;;;;11.37;10.37;;;;;;;16.50;89.83;92242.19;5070227;28;20174;-84
2022/05/29 04:00:20;;;;;;;10.60;9.60;;;;;;;16.47;92.90;92239.47;5070128;28;20229;-85
2022/05/29 04:02:46;;;;;;;12.67;8.70;;;;;;;16.32;90.14;92235.50;5069928;28;20502;-84
2022/05/29 04:05:15;;;;;;;8.57;8.07;;;;;;;16.32;81.22;92217.06;5069707;28;20203;-85
2022/05/29 04:13:10;;;;;;;8.20;7.70;;;;;;;17.19;72.78;92203.50;5070288;28;20212;-84
2022/05/29 04:15:37;;;;;;;8.90;8.30;;;;;;;17.76;71.61;92202.69;5069259;28;20241;-85
2022/05/29 04:18:03;;;;;;;8.20;7.60;;;;;;;18.22;71.37;92225.94;5070523;28;20186;-85
2022/05/29 04:20:29;;;;;;;7.97;7.57;;;;;;;18.44;69.32;92230.75;5069486;28;20225;-85
2022/05/29 04:22:54;;;;;;;8.60;7.83;;;;;;;18.60;67.95;92221.75;5069884;28;20201;-85
2022/05/29 04:25:20;;;;;;;8.13;7.63;;;;;;;18.87;65.26;92233.44;5068944;28;20217;-84
2022/05/29 04:27:45;;;;;;;7.53;7.13;;;;;;;18.63;66.12;92222.97;5070075;28;20185;-84
2022/05/29 04:30:12;;;;;;;8.17;7.30;;;;;;;18.34;66.60;92207.38;5069264;28;20922;-85
2022/05/29 04:35:21;;;;;;;7.23;6.93;;;;;;;18.77;66.03;92224.13;5068704;28;20244;-84
2022/05/29 04:37:48;;;;;;;8.30;7.50;;;;;;;18.61;65.43;92230.47;5069237;28;20247;-86
2022/05/29 04:40:15;;;;;;;8.73;8.00;;;;;;;19.14;60.99;92237.94;5069036;28;20217;-85
2022/05/29 04:42:40;;;;;;;8.90;8.30;;;;;;;19.57;61.24;92237.91;5070102;28;20208;-86
2022/05/29 04:45:06;;;;;;;7.97;7.47;;;;;;;20.05;58.27;92229.56;5069726;28;20185;-85
2022/05/29 04:47:32;;;;;;;8.83;8.37;;;;;;;20.24;57.16;92242.13;5069841;28;20241;-85
2022/05/29 04:49:57;;;;;;;7.77;7.17;;;;;;;20.88;57.50;92241.53;5069873;28;20207;-80
2022/05/29 04:52:23;;;;;;;8.20;7.80;;;;;;;21.35;54.11;92242.84;5069819;28;20187;-85
2022/05/29 04:54:48;;;;;;;7.67;7.33;;;;;;;21.15;54.51;92244.00;5070206;28;20196;-84
2022/05/29 04:57:14;;;;;;;8.00;7.20;;;;;;;21.66;51.40;92247.16;5069213;28;20647;-84
2022/05/29 04:59:39;;;;;;;8.17;7.67;;;;;;;21.78;51.86;92239.81;5070133;28;20192;-84
2022/05/29 05:02:05;;;;;;;8.57;7.82;;;;;;;21.41;52.62;92235.34;5069178;28;20231;-82
2022/05/29 05:04:31;;;;;;;8.30;7.65;;;;;;;22.27;50.81;92241.69;5069839;28;20193;-84
2022/05/29 05:07:00;;;;;;;8.55;7.78;;;;;;;23.05;48.05;92239.66;5069108;28;20222;-84
2022/05/29 05:09:27;;;;;;;7.78;7.28;;;;;;;22.98;50.23;92214.84;5069879;28;20238;-85
2022/05/29 05:11:54;;;;;;;8.30;7.70;;;;;;;22.45;51.81;92238.13;5069261;28;20222;-86
2022/05/29 05:14:21;;;;;;;7.60;7.00;;;;;;;22.61;51.34;92238.75;5068885;28;20220;-85
2022/05/29 05:16:47;;;;;;;8.23;7.63;;;;;;;22.87;52.32;92241.38;5068482;28;20274;-84
2022/05/29 05:19:13;;;;;;;7.53;7.13;;;;;;;22.14;56.82;92225.16;5069290;28;20184;-84
2022/05/29 05:21:39;;;;;;;8.75;8.23;;;;;;;22.11;59.42;92245.28;5067271;28;20210;-86
2022/05/29 05:24:05;;;;;;;9.10;8.50;;;;;;;21.26;62.87;92238.88;5069672;28;20213;-86
2022/05/29 05:26:31;;;;;;;9.05;8.10;;;;;;;21.35;63.76;92237.56;5068772;28;20305;-84
2022/05/29 05:28:57;;;;;;;10.45;9.43;;;;;;;21.40;63.68;92234.56;5069054;28;20218;-84
2022/05/29 05:31:23;;;;;;;9.43;8.52;;;;;;;22.13;61.46;92228.97;5068409;28;20242;-84
2022/05/29 05:33:48;;;;;;;8.68;8.18;;;;;;;25.60;52.58;92260.53;5069112;28;20191;-83
2022/05/29 05:36:15;;;;;;;8.82;8.20;;;;;;;27.00;47.20;92265.09;5068460;28;20222;-84
2022/05/29 05:38:41;;;;;;;9.13;8.50;;;;;;;27.45;45.76;92256.13;5069121;28;20195;-84
2022/05/29 05:41:10;;;;;;;8.27;7.57;;;;;;;28.78;43.42;92270.50;5068820;28;20714;-84
2022/05/29 05:43:35;;;;;;;8.35;7.65;;;;;;;31.52;37.58;92263.03;5068415;28;20204;-85
2022/05/29 05:46:01;;;;;;;8.02;7.32;;;;;;;31.88;36.44;92267.28;5066721;28;20251;-85
2022/05/29 05:48:29;;;;;;;8.60;7.90;;;;;;;32.87;33.16;92259.53;5068034;28;20224;-84
2022/05/29 05:50:57;;;;;;;7.43;6.95;;;;;;;31.02;35.74;92247.03;5068312;28;20232;-86
2022/05/29 05:53:23;;;;;;;8.80;8.20;;;;;;;29.58;38.29;92238.47;5068357;28;20177;-86
2022/05/29 05:55:48;;;;;;;9.02;7.18;;;;;;;30.68;37.04;92251.84;5067748;28;20235;-86
2022/05/29 05:58:14;;;;;;;6.97;6.45;;;;;;;31.09;35.31;92241.47;5069299;28;20214;-87
2022/05/29 06:00:39;;;;;;;7.10;6.57;;;;;;;30.14;37.83;92255.78;5066119;28;20244;-88
2022/05/29 06:03:05;;;;;;;8.55;7.60;;;;;;;31.42;36.60;92251.25;5068962;28;20190;-86
2022/05/29 06:05:30;;;;;;;8.57;7.40;;;;;;;31.96;35.10;92265.94;5067922;28;20231;-85
2022/05/29 06:07:56;;;;;;;7.55;7.05;;;;;;;32.14;33.17;92257.44;5069114;28;20227;-86
2022/05/29 06:10:21;;;;;;;9.30;8.50;;;;;;;31.09;37.04;92271.16;5068194;28;20231;-86
2022/05/29 06:12:47;;;;;;;8.23;7.53;;;;;;;32.34;33.55;92271.63;5069347;28;20188;-88
2022/05/29 06:15:12;;;;;;;7.32;6.78;;;;;;;33.44;30.42;92252.25;5067076;28;20727;-85
2022/05/29 06:17:38;;;;;;;7.75;6.95;;;;;;;32.97;30.56;92264.69;5069768;28;20182;-85
2022/05/29 06:20:06;;;;;;;7.38;6.85;;;;;;;32.46;33.48;92263.66;5068080;28;20232;-85
2022/05/29 06:22:35;;;;;;;7.50;6.85;;;;;;;31.67;35.26;92261.53;5069262;28;20207;-84
2022/05/29 06:25:01;;;;;;;8.38;7.63;;;;;;;29.63;38.47;92244.22;5067695;28;20195;-86
2022/05/29 06:27:28;;;;;;;7.38;6.90;;;;;;;31.20;34.75;92242.81;5068775;28;20261;-82
2022/05/29 06:29:53;;;;;;;7.32;6.72;;;;;;;33.45;32.38;92225.94;5068230;28;20224;-84
2022/05/29 06:32:19;;;;;;;8.98;6.53;;;;;;;34.51;29.72;92248.66;5068244;28;20301;-85
2022/05/29 06:34:44;;;;;;;7.38;6.68;;;;;;;34.97;27.24;92245.22;5067589;28;20173;-85
2022/05/29 06:37:10;;;;;;;8.98;6.78;;;;;;;35.08;27.63;92242.91;5067979;28;20226;-82
2022/05/29 06:39:38;;;;;;;7.45;6.65;;;;;;;33.65;29.22;92212.97;5067869;28;20186;-84
2022/05/29 06:42:05;;;;;;;8.70;6.80;;;;;;;32.34;30.07;92226.47;5067276;28;20213;-84
2022/05/29 06:44:31;;;;;;;7.18;6.78;;;;;;;29.23;34.55;92220.88;5072331;28;20199;-85
2022/05/29 06:46:56;;;;;;;7.18;6.68;;;;;;;27.14;36.85;92199.94;5071544;28;20229;-84
2022/05/29 06:49:22;;;;;;;8.32;7.72;;;;;;;26.08;42.20;92189.53;5071996;28;20201;-85
2022/05/29 06:51:47;;;;;;;8.43;7.28;;;;;;;25.93;41.93;92209.34;5071704;28;20229;-85
2022/05/29 06:54:12;;;;;;;7.03;6.43;;;;;;;25.77;41.79;92195.63;5072750;28;20212;-83
2022/05/29 06:56:38;;;;;;;7.80;7.10;;;;;;;25.76;43.47;92180.69;5071464;28;20233;-84
2022/05/29 06:59:06;;;;;;;7.25;6.70;;;;;;;25.38;44.03;92186.78;5070457;28;20232;-85
2022/05/29 07:07:03;;;;;;;9.15;7.47;;;;;;;24.13;49.92;92174.41;5071199;28;20290;-84
2022/05/29 07:09:32;;;;;;;7.38;6.68;;;;;;;24.33;47.83;92197.03;5072444;28;20279;-85
2022/05/29 07:12:07;;;;;;;8.25;7.63;;;;;;;24.23;48.40;92184.38;5071275;28;20245;-83
2022/05/29 07:14:40;;;;;;;8.73;7.35;;;;;;;24.34;49.39;92195.88;5071343;28;20191;-83
2022/05/29 07:17:06;;;;;;;7.68;7.15;;;;;;;24.28;49.54;92181.38;5070936;28;20296;-81
2022/05/29 07:19:34;;;;;;;8.75;7.63;;;;;;;24.04;50.19;92160.63;5071787;28;20186;-84
2022/05/29 07:22:00;;;;;;;8.18;7.57;;;;;;;24.03;51.28;92183.13;5070750;28;20251;-84
2022/05/29 07:24:27;;;;;;;7.90;7.38;;;;;;;23.82;50.98;92190.91;5071648;28;20250;-84
2022/05/29 07:26:53;;;;;;;8.77;8.13;;;;;;;23.81;50.89;92187.50;5071056;28;20211;-87
2022/05/29 07:29:19;;;;;;;7.63;7.13;;;;;;;23.70;49.31;92182.06;5071368;28;20212;-85
2022/05/29 07:31:45;;;;;;;7.70;7.30;;;;;;;23.54;51.63;92183.47;5070786;28;20264;-85
2022/05/29 07:34:11;;;;;;;12.93;7.68;;;;;;;23.48;51.92;92188.38;5071087;28;20283;-84
2022/05/29 07:36:38;;;;;;;7.63;7.13;;;;;;;23.73;52.85;92181.38;5069550;28;20881;-84
2022/05/29 07:39:04;;;;;;;8.20;7.53;;;;;;;23.51;52.95;92178.88;5070622;28;20187;-82
2022/05/29 07:44:13;;;;;;;6.90;6.50;;;;;;;23.63;52.77;92178.59;5071115;28;20214;-84
2022/05/29 07:46:39;;;;;;;8.00;7.45;;;;;;;23.44;52.83;92186.81;5069541;28;20237;-84
2022/05/29 07:49:05;;;;;;;7.90;7.40;;;;;;;23.40;53.61;92181.47;5070632;28;20215;-85
2022/05/29 07:51:30;;;;;;;8.55;7.68;;;;;;;23.60;54.40;92193.44;5069538;28;20233;-85
2022/05/29 07:53:57;;;;;;;8.57;7.85;;;;;;;23.74;53.39;92174.09;5071127;28;20181;-83
2022/05/29 07:56:24;;;;;;;12.07;7.97;;;;;;;23.63;53.16;92176.69;5069935;28;20326;-85
2022/05/29 07:58:50;;;;;;;8.20;7.45;;;;;;;23.63;53.68;92157.25;5070790;28;20196;-84
2022/05/29 08:01:15;;;;;;;8.23;7.65;;;;;;;23.66;53.44;92172.53;5070399;28;20220;-87
2022/05/29 08:03:41;;;;;;;8.93;8.18;;;;;;;23.71;53.64;92178.28;5070650;28;20176;-84
2022/05/29 08:06:06;;;;;;;9.00;8.32;;;;;;;23.76;54.28;92163.84;5070185;28;20231;-84
2022/05/29 08:08:33;;;;;;;8.98;7.60;;;;;;;23.93;53.29;92178.44;5069624;28;20267;-86
2022/05/29 08:10:59;;;;;;;7.38;6.78;;;;;;;23.65;53.07;92142.44;5069131;28;20231;-82
2022/05/29 08:13:24;;;;;;;7.68;7.13;;;;;;;23.74;53.61;92156.22;5068539;28;20184;-86
2022/05/29 08:15:50;;;;;;;8.00;7.38;;;;;;;23.49;53.29;92131.28;5069671;28;20232;-86
2022/05/29 08:18:16;;;;;;;7.65;7.18;;;;;;;23.54;54.07;92160.25;5069382;28;20193;-87
2022/05/29 08:20:41;;;;;;;8.90;8.35;;;;;;;23.50;54.97;92151.47;5070267;28;20245;-83
2022/05/29 08:23:07;;;;;;;8.38;7.72;;;;;;;23.77;55.24;92148.63;5070200;28;20630;-82
2022/05/29 08:31:02;;;;;;;12.20;7.82;;;;;;;24.19;53.56;92144.34;5068400;28;20270;-80
2022/05/29 08:33:35;;;;;;;8.07;7.50;;;;;;;24.17;52.65;92127.97;5051478;28;20201;-82
2022/05/29 08:36:07;;;;;;;11.15;7.43;;;;;;;24.36;51.51;92159.66;5069592;28;20236;-81
2022/05/29 08:38:34;;;;;;;8.80;8.18;;;;;;;24.26;52.51;92157.72;5070337;28;20186;-84
2022/05/29 08:41:02;;;;;;;7.90;7.40;;;;;;;24.42;53.53;92149.41;5069689;28;20223;-85
2022/05/29 08:43:34;;;;;;;8.40;7.55;;;;;;;24.35;51.16;92152.81;5068551;28;20198;-85
2022/05/29 08:46:36;;;;;;;7.63;6.97;;;;;;;24.22;52.17;92154.25;5069014;28;20267;-82
2022/05/29 08:49:03;;;;;;;8.70;7.70;;;;;;;24.22;50.79;92142.84;5053391;28;20223;-82
2022/05/29 08:52:00;;;;;;;7.97;7.32;;;;;;;24.34;52.44;92150.53;5069349;28;20227;-83
2022/05/29 08:54:43;;;;;;;8.30;7.60;;;;;;;24.61;50.90;92151.78;5069761;28;20189;-83
2022/05/29 08:57:32;;;;;;;10.20;7.00;;;;;;;24.62;49.67;92131.97;5069330;28;20258;-82
2022/05/29 09:00:00;;;;;;;8.27;7.35;;;;;;;24.67;48.73;92126.28;5068609;28;20196;-81
2022/05/29 09:02:41;;;;;;;8.18;7.47;;;;;;;24.32;52.31;92142.88;5067364;28;20200;-82
2022/05/29 09:05:23;;;;;;;9.07;7.40;;;;;;;24.48;52.41;92134.56;5068301;28;20182;-82
2022/05/29 09:07:50;;;;;;;8.18;7.45;;;;;;;24.88;49.28;92140.47;5069185;28;20278;-82
2022/05/29 09:10:25;;;;;;;7.20;6.80;;;;;;;25.08;48.95;92136.31;5069447;28;20231;-82
2022/05/29 09:12:54;;;;;;;8.23;7.63;;;;;;;24.65;51.01;92118.63;5069291;28;20597;-82
2022/05/29 09:15:30;;;;;;;8.80;7.90;;;;;;;24.84;50.43;92128.25;5068842;28;20728;-81
2022/05/29 09:18:04;;;;;;;8.70;7.85;;;;;;;24.85;49.44;92132.44;5068192;28;20685;-81
2022/05/29 09:20:32;;;;;;;9.18;8.30;;;;;;;24.89;48.43;92133.19;5067944;28;20244;-79
2022/05/29 09:23:02;;;;;;;7.90;7.35;;;;;;;24.76;52.11;92124.78;5069690;28;20191;-82
2022/05/29 09:25:35;;;;;;;7.93;7.40;;;;;;;24.97;49.45;92130.19;5068550;28;20228;-84
2022/05/29 09:28:09;;;;;;;9.20;7.90;;;;;;;24.97;49.80;92130.19;5068641;28;20188;-82
2022/05/29 09:30:35;;;;;;;8.35;7.70;;;;;;;24.86;49.65;92123.28;5068675;28;20278;-82
2022/05/29 09:33:06;;;;;;;8.82;8.05;;;;;;;24.78;50.12;92121.75;5067331;28;20206;-82
2022/05/29 09:36:10;;;;;;;9.60;8.80;;;;;;;24.95;51.19;92115.69;5068271;28;20229;-82
2022/05/29 09:38:48;;;;;;;8.25;7.65;;;;;;;25.06;50.59;92106.53;5033897;28;20216;-81
2022/05/29 09:41:19;;;;;;;8.77;8.07;;;;;;;24.74;53.83;92108.38;5068065;28;20414;-83
2022/05/29 09:44:06;;;;;;;8.90;8.07;;;;;;;24.76;50.34;92108.75;5067364;28;20176;-82
2022/05/29 09:46:43;;;;;;;8.70;7.97;;;;;;;24.82;49.74;92106.50;5067650;28;20245;-82
2022/05/29 09:52:14;;;;;;;9.38;8.15;;;;;;;25.07;50.56;92093.94;5065984;28;20250;-82
2022/05/29 09:54:52;;;;;;;8.32;7.70;;;;;;;25.02;53.26;92094.31;5068946;28;20207;-82
2022/05/29 09:57:23;;;;;;;12.25;7.90;;;;;;;25.06;51.46;92079.03;5067685;28;20228;-81
2022/05/29 09:59:53;;;;;;;8.13;7.40;;;;;;;24.86;51.81;92080.53;5069013;28;20196;-83
2022/05/29 10:02:35;;;;;;;9.95;7.60;;;;;;;24.67;52.74;92046.94;5068770;28;20208;-82
2022/05/29 10:05:00;;;;;;;9.40;8.60;;;;;;;24.45;53.43;92074.69;5068672;28;20242;-82
2022/05/29 10:07:34;;;;;;;13.15;8.00;;;;;;;24.33;54.20;92064.34;5069560;28;20236;-81
2022/05/29 10:10:11;;;;;;;8.88;7.95;;;;;;;24.79;52.57;92080.53;5068456;28;20205;-82
2022/05/29 10:12:47;;;;;;;9.95;9.23;;;;;;;24.76;53.83;92071.38;5069994;28;20183;-82
2022/05/29 10:15:25;;;;;;;13.18;8.25;;;;;;;25.19;51.12;92070.31;5068246;28;20187;-82
2022/05/29 10:17:52;;;;;;;9.13;8.30;;;;;;;25.22;50.71;92072.22;5070441;28;20197;-80
2022/05/29 10:20:33;;;;;;;8.50;7.85;;;;;;;25.03;54.67;92063.78;5072401;28;20250;-82
2022/05/29 10:23:27;;;;;;;13.35;8.50;;;;;;;24.90;53.14;92054.63;5071782;28;20267;-84
2022/05/29 10:25:59;;;;;;;8.35;7.70;;;;;;;25.29;50.98;92058.81;5051979;28;20228;-80
2022/05/29 10:28:35;;;;;;;10.82;8.07;;;;;;;25.18;51.38;92054.66;5071356;28;20211;-83
2022/05/29 10:31:22;;;;;;;8.80;8.00;;;;;;;25.14;52.23;92049.28;5071904;28;20231;-80
2022/05/29 10:34:24;;;;;;;7.72;7.22;;;;;;;25.50;50.92;92043.94;5073212;28;20219;-82
2022/05/29 10:36:50;;;;;;;9.20;8.50;;;;;;;25.22;52.14;92021.44;5048794;28;20647;-85
2022/05/29 10:39:31;;;;;;;9.02;8.27;;;;;;;25.41;52.53;92040.91;5074083;28;20193;-84
2022/05/29 10:41:58;;;;;;;9.32;8.60;;;;;;;24.98;52.91;92040.88;5069970;28;20223;-86
2022/05/29 10:44:37;;;;;;;18.60;8.05;;;;;;;25.40;51.17;92034.81;5070480;28;20195;-82
2022/05/29 10:47:30;;;;;;;8.73;8.10;;;;;;;25.15;52.38;92023.34;5071238;28;20275;-82
2022/05/29 10:50:20;;;;;;;8.85;8.13;;;;;;;25.06;54.53;92047.00;5071782;28;20217;-85
2022/05/29 10:53:11;;;;;;;8.68;8.07;;;;;;;24.64;55.30;92041.59;5071565;28;20212;-84
2022/05/29 10:55:36;;;;;;;11.70;9.35;;;;;;;25.12;54.78;92032.13;5069835;28;20234;-83
2022/05/29 10:58:08;;;;;;;10.90;8.75;;;;;;;25.01;54.91;92026.03;5071917;28;20556;-82
2022/05/29 11:00:40;;;;;;;10.20;9.02;;;;;;;25.00;54.09;92027.16;5071291;28;20225;-84
2022/05/29 11:03:17;;;;;;;9.55;9.00;;;;;;;25.09;55.25;92028.28;5071214;28;20211;-83
2022/05/29 11:06:01;;;;;;;10.70;9.43;;;;;;;24.71;55.00;92014.91;5071050;28;20254;-82
2022/05/29 11:08:29;;;;;;;11.43;9.23;;;;;;;25.07;54.36;92011.88;5070608;28;20230;-82
2022/05/29 11:11:21;;;;;;;10.23;9.43;;;;;;;24.93;54.55;92008.47;5071783;28;20332;-82
2022/05/29 11:14:18;;;;;;;10.45;8.93;;;;;;;25.14;55.25;92011.13;5070765;28;20181;-81
2022/05/29 11:16:49;;;;;;;9.57;8.88;;;;;;;25.13;54.69;92017.63;5070473;28;20218;-82
2022/05/29 11:19:34;;;;;;;10.40;8.85;;;;;;;24.51;54.97;92006.47;5070879;28;20247;-86
2022/05/29 11:22:31;;;;;;;10.52;9.57;;;;;;;24.58;54.92;92001.13;5071640;28;20270;-84
2022/05/29 11:25:27;;;;;;;9.80;8.85;;;;;;;24.91;54.54;91992.03;5045536;28;20200;-81
2022/05/29 11:28:34;;;;;;;9.25;8.30;;;;;;;24.97;55.49;91990.50;5070590;28;20219;-82
2022/05/29 11:31:25;;;;;;;9.98;8.85;;;;;;;25.19;53.93;91968.00;5058327;28;20232;-82
2022/05/29 11:33:50;;;;;;;9.90;9.00;;;;;;;25.04;54.64;91977.91;5070975;28;20181;-82
2022/05/29 11:36:21;;;;;;;9.93;9.13;;;;;;;24.82;56.19;91967.63;5070978;28;20247;-83
2022/05/29 11:39:08;;;;;;;9.80;9.00;;;;;;;25.02;55.57;91972.22;5071102;28;20178;-83
2022/05/29 11:41:42;;;;;;;13.02;9.10;;;;;;;25.19;54.26;91971.44;5070774;28;20323;-82
2022/05/29 11:44:19;;;;;;;9.95;9.07;;;;;;;24.87;55.93;91937.88;5071109;28;20184;-83
2022/05/29 11:52:38;;;;;;;9.23;8.32;;;;;;;24.88;54.67;91952.75;5070531;28;20218;-84
2022/05/29 11:55:10;;;;;;;10.43;9.52;;;;;;;24.77;54.78;91952.75;5070536;28;20184;-84
2022/05/29 11:57:56;;;;;;;10.25;9.30;;;;;;;24.67;56.28;91934.81;5068944;28;20186;-83
2022/05/29 12:00:38;;;;;;;10.05;9.15;;;;;;;24.76;55.50;91929.09;5070123;28;20232;-82
2022/05/29 12:03:25;;;;;;;10.77;9.77;;;;;;;24.87;57.62;91949.31;5070281;28;20227;-83
2022/05/29 12:06:28;;;;;;;13.90;9.73;;;;;;;24.69;54.54;91937.09;5070028;28;20229;-81
2022/05/29 12:09:04;;;;;;;10.20;9.40;;;;;;;24.58;55.43;91942.41;5070001;28;20249;-82
2022/05/29 12:11:50;;;;;;;10.68;9.82;;;;;;;24.71;56.44;91945.50;5071168;28;20243;-84
2022/05/29 12:14:34;;;;;;;9.85;9.15;;;;;;;24.36;58.15;91932.09;5070666;28;20223;-82
2022/05/29 12:17:08;;;;;;;10.40;9.55;;;;;;;24.36;56.93;91913.44;5069499;28;20239;-82
2022/05/29 12:19:42;;;;;;;10.68;9.75;;;;;;;25.00;55.64;91931.75;5069996;28;20196;-82
2022/05/29 12:22:10;;;;;;;9.88;9.10;;;;;;;24.55;57.83;91932.50;5070094;28;20238;-83
2022/05/29 12:24:41;;;;;;;11.38;10.25;;;;;;;24.20;58.38;91913.00;5070831;28;20183;-83
2022/05/29 12:27:15;;;;;;;11.90;10.80;;;;;;;24.65;57.20;91925.63;5069300;28;20234;-82